createdAt,value
2022-11-01T00:01:46.693Z,100330.84
2022-11-01T00:04:13.421Z,100328.38
2022-11-01T00:06:39.891Z,100288.34
2022-11-01T00:09:07.013Z,100326.19
2022-11-01T00:11:33.578Z,100327.06
2022-11-01T00:14:00.048Z,100321.28
2022-11-01T00:16:26.619Z,100326.31
2022-11-01T00:18:53.175Z,100313.22
2022-11-01T00:21:19.653Z,100331.97
2022-11-01T00:23:46.419Z,100333.25
2022-11-01T00:26:18.515Z,100334.00
2022-11-01T00:28:45.427Z,100312.56
2022-11-01T00:31:13.302Z,100318.84
2022-11-01T00:33:40.188Z,100325.50
2022-11-01T00:36:07.585Z,100321.69
2022-11-01T00:38:34.722Z,100313.28
2022-11-01T00:41:03.820Z,100307.56
2022-11-01T00:43:31.500Z,100295.41
2022-11-01T00:45:58.465Z,100310.91
2022-11-01T00:48:25.276Z,100312.44
2022-11-01T00:50:51.804Z,100310.59
2022-11-01T00:53:18.372Z,100303.50
2022-11-01T00:55:45.013Z,100296.94
2022-11-01T00:58:11.453Z,100292.31
2022-11-01T01:00:38.248Z,100285.66
2022-11-01T01:03:05.599Z,100286.75
2022-11-01T01:05:33.798Z,100284.41
2022-11-01T01:08:00.273Z,100317.28
2022-11-01T01:10:27.029Z,100302.63
2022-11-01T01:12:53.641Z,100314.50
2022-11-01T01:15:20.197Z,100313.22
2022-11-01T01:17:46.973Z,100287.84
2022-11-01T01:20:14.319Z,100285.28
2022-11-01T01:22:41.857Z,100305.31
2022-11-01T01:25:09.214Z,100313.84
2022-11-01T01:27:36.368Z,100240.31
2022-11-01T01:30:03.873Z,100270.91
2022-11-01T01:32:30.426Z,100236.13
2022-11-01T01:34:56.882Z,100244.84
2022-11-01T01:37:23.314Z,100244.56
2022-11-01T01:39:49.856Z,100259.19
2022-11-01T01:42:22.919Z,100295.75
2022-11-01T01:44:52.526Z,100307.19
2022-11-01T01:47:19.108Z,100307.00
2022-11-01T01:49:46.319Z,100297.34
2022-11-01T01:52:13.099Z,100300.72
2022-11-01T01:54:39.702Z,100297.41
2022-11-01T01:57:06.357Z,100284.09
2022-11-01T01:59:33.117Z,100237.22
2022-11-01T02:02:00.218Z,100260.78
2022-11-01T02:04:41.639Z,100278.03
2022-11-01T02:07:09.332Z,100269.69
2022-11-01T02:09:36.576Z,100210.88
2022-11-01T02:12:03.644Z,100247.78
2022-11-01T02:14:30.540Z,100258.94
2022-11-01T02:16:57.018Z,100268.03
2022-11-01T02:19:35.805Z,100265.25
2022-11-01T02:22:11.412Z,100253.88
2022-11-01T02:25:13.041Z,100253.09
2022-11-01T02:28:20.246Z,100263.66
2022-11-01T02:31:00.572Z,100257.63
2022-11-01T02:33:34.788Z,100222.09
2022-11-01T02:36:50.927Z,100259.06
2022-11-01T02:39:22.786Z,100257.72
2022-11-01T02:41:52.336Z,100266.34
2022-11-01T02:44:23.447Z,100264.94
2022-11-01T02:47:01.856Z,100228.88
2022-11-01T02:49:32.101Z,100258.19
2022-11-01T02:51:59.665Z,100254.22
2022-11-01T02:54:34.902Z,100257.53
2022-11-01T02:57:07.192Z,100265.88
2022-11-01T02:59:46.967Z,100244.28
2022-11-01T03:02:39.697Z,100259.31
2022-11-01T03:05:17.150Z,100231.75
2022-11-01T03:07:47.293Z,100272.53
2022-11-01T03:10:14.064Z,100242.16
2022-11-01T03:13:07.441Z,100277.50
2022-11-01T03:15:39.907Z,100260.50
2022-11-01T03:18:13.913Z,100271.50
2022-11-01T03:20:47.769Z,100268.03
2022-11-01T03:23:23.868Z,100270.59
2022-11-01T03:25:53.750Z,100270.69
2022-11-01T03:28:22.617Z,100263.94
2022-11-01T03:30:56.525Z,100239.38
2022-11-01T03:33:24.305Z,100260.44
2022-11-01T03:35:54.295Z,100269.84
2022-11-01T03:38:24.885Z,100274.81
2022-11-01T03:40:56.449Z,100278.22
2022-11-01T03:43:24.313Z,100275.88
2022-11-01T03:45:51.059Z,100251.28
2022-11-01T03:48:17.610Z,100257.19
2022-11-01T03:50:48.580Z,100288.44
2022-11-01T03:53:15.656Z,100293.31
2022-11-01T03:55:42.670Z,100294.06
2022-11-01T03:58:09.121Z,100296.88
2022-11-01T04:00:40.475Z,100305.09
2022-11-01T04:03:07.383Z,100297.59
2022-11-01T04:05:34.912Z,100288.97
2022-11-01T04:08:01.461Z,100288.13
2022-11-01T04:10:31.288Z,100300.22
2022-11-01T04:12:58.634Z,100276.16
2022-11-01T04:15:44.714Z,100311.06
2022-11-01T04:18:32.806Z,100313.81
2022-11-01T04:21:02.249Z,100266.81
2022-11-01T04:23:28.693Z,100310.69
2022-11-01T04:25:55.136Z,100312.34
2022-11-01T04:28:21.949Z,100311.53
2022-11-01T04:30:48.348Z,100331.84
2022-11-01T04:33:14.917Z,100330.56
2022-11-01T04:35:41.692Z,100302.06
2022-11-01T04:38:10.130Z,100306.22
2022-11-01T04:40:36.633Z,100284.97
2022-11-01T04:43:03.739Z,100331.38
2022-11-01T04:45:30.223Z,100292.31
2022-11-01T04:48:08.819Z,100328.13
2022-11-01T04:50:35.609Z,100332.31
2022-11-01T04:53:02.598Z,100324.34
2022-11-01T04:55:29.414Z,100343.00
2022-11-01T04:57:55.939Z,100328.47
2022-11-01T05:00:25.230Z,100345.44
2022-11-01T05:02:52.373Z,100315.06
2022-11-01T05:05:19.577Z,100341.16
2022-11-01T05:07:46.269Z,100345.28
2022-11-01T05:10:12.846Z,100346.63
2022-11-01T05:12:39.645Z,100353.78
2022-11-01T05:15:06.842Z,100363.19
2022-11-01T05:17:33.388Z,100356.91
2022-11-01T05:19:59.845Z,100327.53
2022-11-01T05:22:26.339Z,100332.91
2022-11-01T05:24:53.505Z,100322.88
2022-11-01T05:27:19.957Z,100360.81
2022-11-01T05:29:46.421Z,100359.38
2022-11-01T05:32:12.891Z,100369.88
2022-11-01T05:34:39.472Z,100371.72
2022-11-01T05:37:05.984Z,100318.44
2022-11-01T05:39:32.442Z,100372.16
2022-11-01T05:42:01.811Z,100370.84
2022-11-01T05:44:29.704Z,100384.63
2022-11-01T05:46:56.455Z,100380.63
2022-11-01T05:49:23.020Z,100365.78
2022-11-01T05:51:49.600Z,100384.56
2022-11-01T05:54:16.124Z,100381.25
2022-11-01T05:56:42.586Z,100360.47
2022-11-01T05:59:09.356Z,100370.31
2022-11-01T06:01:35.990Z,100355.41
2022-11-01T06:04:02.600Z,100359.97
2022-11-01T06:06:32.469Z,100395.91
2022-11-01T06:08:59.484Z,100400.28
2022-11-01T06:11:26.820Z,100359.19
2022-11-01T06:13:55.170Z,100389.47
2022-11-01T06:16:21.771Z,100413.44
2022-11-01T06:18:48.570Z,100420.72
2022-11-01T06:21:15.600Z,100416.25
2022-11-01T06:23:42.150Z,100359.41
2022-11-01T06:26:08.589Z,100420.59
2022-11-01T06:28:35.091Z,100377.91
2022-11-01T06:31:03.173Z,100414.56
2022-11-01T06:33:30.972Z,100426.75
2022-11-01T06:35:57.784Z,100450.50
2022-11-01T06:38:24.256Z,100406.38
2022-11-01T06:40:50.733Z,100434.88
2022-11-01T06:43:17.174Z,100456.69
2022-11-01T06:45:43.754Z,100461.69
2022-11-01T06:48:10.342Z,100474.63
2022-11-01T06:50:36.887Z,100462.31
2022-11-01T06:53:03.324Z,100434.09
2022-11-01T06:55:30.316Z,100478.72
2022-11-01T06:57:58.558Z,100483.28
2022-11-01T07:00:26.817Z,100485.53
2022-11-01T07:03:01.137Z,100497.25
2022-11-01T07:05:32.843Z,100502.78
2022-11-01T07:08:03.070Z,100513.56
2022-11-01T07:10:30.157Z,100493.47
2022-11-01T07:13:04.834Z,100517.66
2022-11-01T07:15:31.489Z,100532.13
2022-11-01T07:18:02.654Z,100534.41
2022-11-01T07:20:30.634Z,100533.81
2022-11-01T07:23:02.577Z,100542.19
2022-11-01T07:25:29.867Z,100505.13
2022-11-01T07:27:56.712Z,100563.63
2022-11-01T07:30:23.748Z,100525.19
2022-11-01T07:32:55.764Z,100572.28
2022-11-01T07:35:22.587Z,100556.66
2022-11-01T07:37:49.090Z,100579.28
2022-11-01T07:40:15.837Z,100542.50
2022-11-01T07:42:43.534Z,100568.81
2022-11-01T07:45:13.166Z,100559.34
2022-11-01T07:47:39.872Z,100559.94
2022-11-01T07:50:07.124Z,100619.94
2022-11-01T07:52:34.031Z,100620.31
2022-11-01T07:55:00.579Z,100623.28
2022-11-01T07:57:27.191Z,100626.16
2022-11-01T07:59:53.656Z,100638.44
2022-11-01T08:02:20.434Z,100640.03
2022-11-01T08:04:46.967Z,100655.22
2022-11-01T08:07:13.415Z,100656.25
2022-11-01T08:09:42.268Z,100641.34
2022-11-01T08:12:08.729Z,100666.22
2022-11-01T08:14:35.202Z,100624.56
2022-11-01T08:17:01.860Z,100657.16
2022-11-01T08:19:28.579Z,100676.56
2022-11-01T08:21:59.773Z,100689.59
2022-11-01T08:24:27.246Z,100690.59
2022-11-01T08:26:54.246Z,100653.28
2022-11-01T08:29:21.184Z,100675.13
2022-11-01T08:31:49.156Z,100702.56
2022-11-01T08:34:16.919Z,100711.75
2022-11-01T08:36:43.815Z,100672.88
2022-11-01T08:39:10.715Z,100718.78
2022-11-01T08:41:37.639Z,100720.41
2022-11-01T08:44:04.779Z,100669.09
2022-11-01T08:46:31.646Z,100713.06
2022-11-01T08:49:00.431Z,100716.16
2022-11-01T08:51:27.943Z,100652.34
2022-11-01T08:53:58.000Z,100694.28
2022-11-01T08:56:25.177Z,100731.56
2022-11-01T08:58:52.906Z,100725.56
2022-11-01T09:01:20.871Z,100752.44
2022-11-01T09:03:47.891Z,100734.19
2022-11-01T09:06:14.494Z,100729.09
2022-11-01T09:08:41.322Z,100751.97
2022-11-01T09:11:08.110Z,100715.56
2022-11-01T09:13:34.784Z,100721.03
2022-11-01T09:16:06.677Z,100729.88
2022-11-01T09:18:33.738Z,100769.53
2022-11-01T09:21:00.466Z,100727.66
2022-11-01T09:23:27.108Z,100764.31
2022-11-01T09:25:53.973Z,100768.28
2022-11-01T09:28:20.542Z,100766.41
2022-11-01T09:30:50.014Z,100769.66
2022-11-01T09:33:27.666Z,100780.00
2022-11-01T09:35:59.317Z,100777.38
2022-11-01T09:38:26.866Z,100788.59
2022-11-01T09:41:07.361Z,100778.09
2022-11-01T09:43:37.689Z,100758.31
2022-11-01T09:46:05.250Z,100776.13
2022-11-01T09:48:33.962Z,100800.03
2022-11-01T09:51:05.659Z,100783.94
2022-11-01T09:53:32.300Z,100764.84
2022-11-01T09:56:10.338Z,100785.13
2022-11-01T09:58:55.203Z,100796.59
2022-11-01T10:01:42.324Z,100784.44
2022-11-01T10:04:36.807Z,100791.69
2022-11-01T10:07:22.171Z,100799.16
2022-11-01T10:10:13.068Z,100803.78
2022-11-01T10:13:11.985Z,100799.66
2022-11-01T10:15:52.803Z,100805.69
2022-11-01T10:18:19.376Z,100794.41
2022-11-01T10:20:46.450Z,100808.31
2022-11-01T10:23:16.192Z,100805.22
2022-11-01T10:25:48.853Z,100810.44
2022-11-01T10:28:59.524Z,100816.75
2022-11-01T10:31:27.654Z,100812.84
2022-11-01T10:33:59.994Z,100815.16
2022-11-01T10:36:49.731Z,100815.41
2022-11-01T10:39:54.273Z,100820.59
2022-11-01T10:42:23.095Z,100823.25
2022-11-01T10:44:55.364Z,100817.19
2022-11-01T10:47:23.754Z,100808.47
2022-11-01T10:50:05.530Z,100794.75
2022-11-01T10:52:44.951Z,100808.97
2022-11-01T10:55:15.574Z,100797.63
2022-11-01T10:57:49.418Z,100779.63
2022-11-01T11:00:18.835Z,100813.75
2022-11-01T11:02:53.327Z,100761.13
2022-11-01T11:05:20.929Z,100796.00
2022-11-01T11:07:47.486Z,100804.88
2022-11-01T11:10:27.163Z,100812.72
2022-11-01T11:13:01.643Z,100793.16
2022-11-01T11:16:05.623Z,100803.69
2022-11-01T11:18:38.733Z,100805.84
2022-11-01T11:21:13.421Z,100799.75
2022-11-01T11:23:42.835Z,100798.56
2022-11-01T11:26:13.572Z,100805.75
2022-11-01T11:28:51.872Z,100792.63
2022-11-01T11:31:25.739Z,100803.28
2022-11-01T11:34:22.506Z,100799.91
2022-11-01T11:36:49.945Z,100807.47
2022-11-01T11:39:37.150Z,100801.38
2022-11-01T11:42:20.824Z,100803.63
2022-11-01T11:44:55.653Z,100808.72
2022-11-01T11:47:25.737Z,100815.69
2022-11-01T11:49:54.329Z,100812.75
2022-11-01T11:52:28.350Z,100809.50
2022-11-01T11:54:55.524Z,100818.44
2022-11-01T11:57:30.273Z,100811.00
2022-11-01T12:00:01.316Z,100824.88
2022-11-01T12:02:29.914Z,100812.22
2022-11-01T12:05:03.589Z,100825.63
2022-11-01T12:07:45.411Z,100829.28
2022-11-01T12:10:31.915Z,100827.50
2022-11-01T12:12:58.931Z,100823.28
2022-11-01T12:15:29.199Z,100816.94
2022-11-01T12:17:56.465Z,100828.97
2022-11-01T12:20:26.777Z,100825.28
2022-11-01T12:23:23.242Z,100838.31
2022-11-01T12:25:50.417Z,100839.13
2022-11-01T12:28:28.415Z,100841.00
2022-11-01T12:30:58.034Z,100849.19
2022-11-01T12:33:48.751Z,100854.59
2022-11-01T12:36:15.556Z,100854.63
2022-11-01T12:38:44.610Z,100857.97
2022-11-01T12:41:42.894Z,100846.97
2022-11-01T12:44:39.350Z,100842.75
2022-11-01T12:47:20.545Z,100849.84
2022-11-01T12:49:46.991Z,100845.25
2022-11-01T12:52:35.007Z,100840.19
2022-11-01T12:55:16.520Z,100841.09
2022-11-01T12:57:46.385Z,100829.66
2022-11-01T13:00:15.595Z,100834.78
2022-11-01T13:03:04.974Z,100843.44
2022-11-01T13:05:49.552Z,100843.75
2022-11-01T13:08:34.539Z,100838.28
2022-11-01T13:11:10.159Z,100804.19
2022-11-01T13:13:52.344Z,100840.28
2022-11-01T13:16:27.840Z,100842.41
2022-11-01T13:19:04.856Z,100840.28
2022-11-01T13:21:48.567Z,100847.47
2022-11-01T13:24:32.032Z,100838.59
2022-11-01T13:27:28.093Z,100835.69
2022-11-01T13:30:03.694Z,100835.28
2022-11-01T13:32:38.679Z,100834.22
2022-11-01T13:35:31.760Z,100825.50
2022-11-01T13:38:29.374Z,100837.19
2022-11-01T13:41:10.394Z,100834.84
2022-11-01T13:43:41.866Z,100798.78
2022-11-01T13:46:14.512Z,100836.44
2022-11-01T13:48:53.727Z,100834.13
2022-11-01T13:51:44.906Z,100831.44
2022-11-01T13:54:30.260Z,100838.25
2022-11-01T13:57:09.284Z,100843.38
2022-11-01T13:59:44.698Z,100840.50
2022-11-01T14:02:23.823Z,100844.00
2022-11-01T14:05:10.609Z,100843.53
2022-11-01T14:08:03.514Z,100853.47
2022-11-01T14:10:32.924Z,100841.91
2022-11-01T14:13:09.713Z,100841.13
2022-11-01T14:16:01.518Z,100845.09
2022-11-01T14:18:28.041Z,100850.78
2022-11-01T14:20:55.789Z,100828.19
2022-11-01T14:23:28.685Z,100843.50
2022-11-01T14:26:25.834Z,100832.00
2022-11-01T14:28:55.258Z,100833.13
2022-11-01T14:31:23.882Z,100838.31
2022-11-01T14:33:54.752Z,100830.28
2022-11-01T14:36:27.501Z,100839.16
2022-11-01T14:38:58.349Z,100831.81
2022-11-01T14:41:26.455Z,100821.50
2022-11-01T14:46:34.974Z,100848.56
2022-11-01T14:49:15.532Z,100840.34
2022-11-01T14:51:46.825Z,100844.88
2022-11-01T14:54:23.241Z,100839.81
2022-11-01T14:56:52.201Z,100845.28
2022-11-01T14:59:31.998Z,100854.06
2022-11-01T15:02:05.191Z,100847.41
2022-11-01T15:04:38.931Z,100841.28
2022-11-01T15:07:18.229Z,100838.75
2022-11-01T15:10:13.812Z,100846.31
2022-11-01T15:12:53.218Z,100846.16
2022-11-01T15:15:25.916Z,100848.03
2022-11-01T15:17:57.873Z,100841.81
2022-11-01T15:20:31.511Z,100832.34
2022-11-01T15:22:59.040Z,100838.75
2022-11-01T15:25:26.623Z,100856.22
2022-11-01T15:27:54.705Z,100831.84
2022-11-01T15:30:34.905Z,100863.22
2022-11-01T15:33:23.985Z,100851.25
2022-11-01T15:35:55.512Z,100809.47
2022-11-01T15:38:23.402Z,100862.38
2022-11-01T15:40:53.258Z,100863.81
2022-11-01T15:43:22.451Z,100854.38
2022-11-01T15:45:53.213Z,100865.25
2022-11-01T15:48:23.342Z,100863.19
2022-11-01T15:51:01.425Z,100871.63
2022-11-01T15:53:31.469Z,100862.84
2022-11-01T15:56:12.739Z,100839.81
2022-11-01T15:58:49.342Z,100865.16
2022-11-01T16:01:18.896Z,100853.31
2022-11-01T16:04:08.976Z,100881.03
2022-11-01T16:06:57.990Z,100881.91
2022-11-01T16:09:27.522Z,100874.94
2022-11-01T16:11:59.266Z,100856.00
2022-11-01T16:14:31.493Z,100882.34
2022-11-01T16:17:05.325Z,100892.44
2022-11-01T16:19:36.952Z,100884.44
2022-11-01T16:22:05.424Z,100879.22
2022-11-01T16:24:32.353Z,100884.31
2022-11-01T16:27:03.624Z,100886.38
2022-11-01T16:29:50.248Z,100884.72
2022-11-01T16:32:23.944Z,100883.75
2022-11-01T16:34:50.899Z,100882.31
2022-11-01T16:37:23.713Z,100897.81
2022-11-01T16:39:51.463Z,100863.19
2022-11-01T16:42:19.192Z,100899.53
2022-11-01T16:44:46.519Z,100867.25
2022-11-01T16:47:14.529Z,100884.38
2022-11-01T16:49:49.744Z,100893.06
2022-11-01T16:52:16.613Z,100889.91
2022-11-01T16:54:43.258Z,100902.78
2022-11-01T16:57:20.427Z,100895.16
2022-11-01T16:59:47.269Z,100813.75
2022-11-01T17:02:15.660Z,100875.06
2022-11-01T17:04:43.040Z,100874.91
2022-11-01T17:07:12.948Z,100860.69
2022-11-01T17:09:39.910Z,100882.09
2022-11-01T17:12:07.681Z,100897.78
2022-11-01T17:14:37.437Z,100916.38
2022-11-01T17:17:08.657Z,100914.84
2022-11-01T17:19:38.737Z,100908.66
2022-11-01T17:22:13.527Z,100922.84
2022-11-01T17:24:40.206Z,100923.69
2022-11-01T17:27:07.134Z,100909.44
2022-11-01T17:29:33.665Z,100869.72
2022-11-01T17:32:01.025Z,100921.56
2022-11-01T17:34:28.885Z,100933.00
2022-11-01T17:36:57.282Z,100927.63
2022-11-01T17:39:26.526Z,100926.00
2022-11-01T17:41:53.372Z,100932.41
2022-11-01T17:44:19.834Z,100910.63
2022-11-01T17:46:46.553Z,100900.19
2022-11-01T17:49:16.600Z,100890.81
2022-11-01T17:51:43.293Z,100939.81
2022-11-01T17:54:10.611Z,100921.91
2022-11-01T17:56:37.195Z,100934.53
2022-11-01T17:59:03.769Z,100912.97
2022-11-01T18:01:30.448Z,100898.56
2022-11-01T18:03:57.009Z,100956.09
2022-11-01T18:06:23.870Z,100949.34
2022-11-01T18:08:51.868Z,100945.56
2022-11-01T18:11:36.588Z,100955.59
2022-11-01T18:14:13.899Z,100941.22
2022-11-01T18:16:46.333Z,100960.88
2022-11-01T18:19:31.008Z,100963.84
2022-11-01T18:22:07.215Z,100955.41
2022-11-01T18:24:39.517Z,100961.34
2022-11-01T18:27:13.408Z,100936.03
2022-11-01T18:29:41.916Z,100922.16
2022-11-01T18:33:01.463Z,100959.13
2022-11-01T18:36:14.697Z,100970.94
2022-11-01T18:38:42.296Z,100963.50
2022-11-01T18:41:13.132Z,100954.91
2022-11-01T18:43:40.121Z,100962.31
2022-11-01T18:46:26.870Z,100907.63
2022-11-01T18:49:01.978Z,100921.16
2022-11-01T18:51:30.230Z,100946.22
2022-11-01T18:54:26.276Z,100931.13
2022-11-01T18:56:56.352Z,100954.03
2022-11-01T18:59:32.798Z,100958.16
2022-11-01T19:02:13.330Z,100951.69
2022-11-01T19:04:42.560Z,100912.16
2022-11-01T19:07:14.388Z,100952.81
2022-11-01T19:09:43.934Z,100948.56
2022-11-01T19:12:15.516Z,100960.81
2022-11-01T19:14:43.242Z,100936.19
2022-11-01T19:17:25.628Z,100965.00
2022-11-01T19:19:56.812Z,100964.69
2022-11-01T19:22:36.978Z,100961.41
2022-11-01T19:25:28.157Z,100969.38
2022-11-01T19:27:56.525Z,100899.28
2022-11-01T19:30:26.428Z,100776.63
2022-11-01T19:32:54.371Z,100956.44
2022-11-01T19:35:22.665Z,100902.56
2022-11-01T19:37:51.214Z,100928.13
2022-11-01T19:40:31.554Z,100962.34
2022-11-01T19:43:00.227Z,100957.88
2022-11-01T19:45:30.735Z,100963.31
2022-11-01T19:47:58.459Z,100972.16
2022-11-01T19:50:45.934Z,100958.75
2022-11-01T19:53:28.386Z,100961.50
2022-11-01T19:55:58.797Z,100964.25
2022-11-01T19:58:30.014Z,100952.66
2022-11-01T20:01:43.212Z,100966.50
2022-11-01T20:04:14.520Z,100960.34
2022-11-01T20:07:09.593Z,100962.75
2022-11-01T20:09:36.554Z,100956.44
2022-11-01T20:12:03.258Z,100965.44
2022-11-01T20:14:30.694Z,100955.31
2022-11-01T20:16:57.300Z,100962.84
2022-11-01T20:19:23.780Z,100948.00
2022-11-01T20:21:50.339Z,100961.03
2022-11-01T20:24:16.808Z,100956.78
2022-11-01T20:26:43.536Z,100878.00
2022-11-01T20:29:10.129Z,100957.94
2022-11-01T20:31:37.104Z,100957.31
2022-11-01T20:34:03.892Z,100950.09
2022-11-01T20:36:30.410Z,100898.78
2022-11-01T20:38:56.937Z,100957.84
2022-11-01T20:41:23.653Z,100928.81
2022-11-01T20:43:50.423Z,100927.00
2022-11-01T20:46:17.164Z,100925.72
2022-11-01T20:48:45.231Z,100950.19
2022-11-01T20:51:13.164Z,100954.47
2022-11-01T20:53:39.665Z,100963.22
2022-11-01T20:56:06.723Z,100951.81
2022-11-01T20:58:40.199Z,100955.53
2022-11-01T21:01:18.559Z,100951.69
2022-11-01T21:03:45.556Z,100964.81
2022-11-01T21:06:13.730Z,100955.88
2022-11-01T21:08:40.839Z,100950.06
2022-11-01T21:11:22.928Z,100938.00
2022-11-01T21:13:51.700Z,100959.19
2022-11-01T21:16:31.077Z,100960.63
2022-11-01T21:19:04.583Z,100954.03
2022-11-01T21:21:33.336Z,100937.03
2022-11-01T21:24:01.273Z,100960.03
2022-11-01T21:26:34.338Z,100939.38
2022-11-01T21:29:15.598Z,100951.19
2022-11-01T21:31:42.643Z,100963.09
2022-11-01T21:34:09.947Z,100970.19
2022-11-01T21:36:57.252Z,100978.06
2022-11-01T21:39:26.450Z,100958.75
2022-11-01T21:41:58.842Z,100957.31
2022-11-01T21:44:29.384Z,100954.00
2022-11-01T21:47:19.912Z,100960.09
2022-11-01T21:49:46.920Z,100939.81
2022-11-01T21:52:13.741Z,100940.50
2022-11-01T21:54:41.088Z,100941.91
2022-11-01T21:57:09.665Z,100926.78
2022-11-01T21:59:36.851Z,100945.53
2022-11-01T22:02:04.584Z,100946.28
2022-11-01T22:04:31.518Z,100900.22
2022-11-01T22:07:03.106Z,100936.47
2022-11-01T22:09:30.035Z,100886.91
2022-11-01T22:11:56.623Z,100900.91
2022-11-01T22:14:23.893Z,100940.94
2022-11-01T22:16:50.539Z,100932.59
2022-11-01T22:19:17.251Z,100939.59
2022-11-01T22:24:15.241Z,100924.94
2022-11-01T22:26:41.764Z,100905.22
2022-11-01T22:29:08.223Z,100913.09
2022-11-01T22:31:34.744Z,100919.13
2022-11-01T22:34:01.679Z,100929.66
2022-11-01T22:36:29.974Z,100921.78
2022-11-01T22:38:58.041Z,100911.81
2022-11-01T22:41:31.622Z,100864.81
2022-11-01T22:44:03.464Z,100913.72
2022-11-01T22:46:42.132Z,100891.16
2022-11-01T22:49:40.812Z,100899.94
2022-11-01T22:52:37.314Z,100895.66
2022-11-01T22:55:10.888Z,100898.47
2022-11-01T22:57:40.405Z,100899.59
2022-11-01T23:00:28.238Z,100898.66
2022-11-01T23:03:11.011Z,100904.69
2022-11-01T23:05:37.564Z,100899.31
2022-11-01T23:08:26.964Z,100862.41
2022-11-01T23:10:54.038Z,100872.22
2022-11-01T23:13:48.376Z,100886.41
2022-11-01T23:16:25.148Z,100862.66
2022-11-01T23:18:59.782Z,100884.13
2022-11-01T23:21:27.240Z,100879.41
2022-11-01T23:23:54.511Z,100889.06
2022-11-01T23:26:22.119Z,100865.22
2022-11-01T23:28:53.245Z,100895.28
2022-11-01T23:31:20.965Z,100885.56
2022-11-01T23:33:48.732Z,100890.50
2022-11-01T23:36:34.295Z,100882.03
2022-11-01T23:39:02.273Z,100885.88
2022-11-01T23:41:37.537Z,100872.53
2022-11-01T23:44:25.693Z,100871.25
2022-11-01T23:46:52.943Z,100852.53
2022-11-01T23:49:24.131Z,100857.03
2022-11-01T23:51:51.381Z,100859.56
2022-11-01T23:54:33.373Z,100847.06
2022-11-01T23:56:59.845Z,100857.16
2022-11-01T23:59:26.541Z,100804.91
